Terminal Aerodrome Forecast
Issued by NWS

Home | Current Version | Previous Version | Text Only | Print | Product List | Glossary On
Versions: 1 2 3 4 5 6 7 8 9 10 11 12 13 14 15 16 17 18 19 20 21 22 23 24 25 26 27 28 29 30
000
FTUS42 KMFL 210539
TAFFXE
TAF
KFXE 210539Z 2106/2206 10010KT P6SM FEW020 SCT250
     FM211300 10015KT P6SM FEW035
     FM220000 09010KT P6SM VCSH SCT030 SCT060=

USA.gov is the U.S. government's official web portal to all federal, state and local government web resources and services.